Latest Coastal Weather Observations for Moruya Airport

IDN60701

Issued at 10:25 am EDT Wednesday 26 November 2014 (issued every 10 minutes, with the page automatically refreshed every 10 minutes)

About coastal observations | Map of coastal stations | Coastal observations for NSW | Marine services | Other Formats
Station Details ID: 069148 Name: MORUYA AIRPORT AWS Lat: -35.90 Lon: 150.14 Height: 4.0 m
Data from the previous 72 hours. | See also: Recent months for locations in New South Wales
Date/Time
EDT
Temp

°C
Wind Pressure Rain
since 9am
mm
Weather Cloud Vis
km
Sea
Height
m
Swell
Dir
 
Speed
knots
Gust
knots
hPa Trend Height
m
Period
s
Dir
26/10:00am 20.7 ENE 8 10 1018.4 - 0.0 - Partly cloudy 10 - - - -
26/09:30am 21.2 ENE 8 11 1018.5 - 0.0 - - 10 - - - -
26/09:00am 20.5 NNE 5 8 1018.9 - 0.0 - - 10 - - - -
26/08:30am 20.0 E 4 7 1019.1 - 0.0 - - 10 - - - -
26/08:00am 18.4 SSW 3 5 1019.2 - 0.0 - Partly cloudy 10 - - - -
26/07:30am 16.9 W 1 5 1019.1 - 0.0 - - 8 - - - -
26/07:00am 15.4 CALM 0 3 1019.0 - 0.0 - Partly cloudy 7 - - - -
26/06:30am 14.3 CALM 0 0 1019.0 - 0.0 - Partly cloudy 9 - - - -
26/06:00am 13.1 W 3 4 1018.9 - 0.0 - Mostly clear 9 - - - -
26/05:30am 12.9 WNW 1 4 1018.8 - 0.0 - Partly cloudy 7 - - - -
26/05:00am 13.4 CALM 0 0 1018.6 - 0.0 - Partly cloudy 8 - - - -
26/04:30am 13.3 CALM 0 0 1018.4 - 0.0 - Partly cloudy 6 - - - -
26/04:00am 13.2 CALM 0 0 1018.4 - 0.0 - Partly cloudy 8 - - - -
26/03:31am 13.6 CALM 0 0 1018.4 - 0.0 - - 7 - - - -
26/03:30am 13.6 CALM 0 0 1018.4 - 0.0 - - 7 - - - -
26/03:21am 13.8 CALM 0 0 1018.4 - 0.0 - - 5 - - - -
26/03:00am 14.7 CALM 0 0 1018.7 - 0.0 - Mostly clear 8 - - - -
26/02:30am 15.6 CALM 0 0 1019.0 - 0.0 - Partly cloudy 9 - - - -
26/02:00am 15.8 CALM 0 0 1019.4 - 0.0 - Partly cloudy 8 - - - -
26/01:30am 16.4 CALM 0 0 1019.6 - 0.0 - Cloudy 9 - - - -
26/01:00am 16.9 NNW 1 4 1020.0 - 0.0 - Cloudy 6 - - - -
26/12:30am 17.5 N 3 4 1020.1 - 0.0 - Partly cloudy 10 - - - -
26/12:00am 17.8 N 4 5 1020.2 - 0.0 - Cloudy 8 - - - -
 
Date/Time
EDT
Temp

°C
Wind Pressure Rain
since 9am
mm
Weather Cloud Vis
km
Sea
Height
m
Swell
Dir
 
Speed
knots
Gust
knots
hPa Trend Height
m
Period
s
Dir
25/11:30pm 17.9 N 4 5 1020.3 - 0.0 - Partly cloudy 8 - - - -
25/11:00pm 18.3 NNE 7 9 1020.4 - 0.0 - Partly cloudy 8 - - - -
25/10:30pm 18.0 ENE 8 10 1020.5 - 0.0 - Partly cloudy 7 - - - -
25/10:00pm 18.2 ENE 9 11 1020.4 - 0.0 - Cloudy 10 - - - -
25/09:30pm 18.4 NNE 8 11 1020.0 - 0.0 - Partly cloudy 10 - - - -
25/09:24pm 18.3 NNE 9 12 1020.0 - 0.0 - Cloudy 8 - - - -
25/09:06pm 18.4 NE 9 13 1019.8 - 0.0 - Cloudy 5 - - - -
25/09:00pm 18.5 NE 9 13 1019.7 - 0.0 - Cloudy 10 - - - -
25/08:30pm 18.8 NE 9 15 1019.2 - 0.0 - Partly cloudy 6 - - - -
25/08:00pm 18.9 NE 9 12 1018.9 - 0.0 - Partly cloudy 9 - - - -
25/07:30pm 18.9 ENE 9 11 1018.5 - 0.0 - Cloudy 9 - - - -
25/07:00pm 19.1 ENE 9 11 1018.1 - 0.0 - Cloudy 6 - - - -
25/06:30pm 19.4 NE 8 11 1017.7 - 0.0 - Cloudy 8 - - - -
25/06:00pm 19.6 ENE 8 11 1017.2 - 0.0 - Mostly cloudy 10 - - - -
25/05:30pm 19.9 E 9 11 1016.9 - 0.0 - Cloudy 10 - - - -
25/05:00pm 20.0 E 9 11 1016.8 - 0.0 - Partly cloudy 10 - - - -
25/04:30pm 21.1 E 9 11 1016.5 - 0.0 - - 10 - - - -
25/04:00pm 21.1 E 9 11 1016.3 - 0.0 - - 10 - - - -
25/03:30pm 21.6 E 9 11 1016.0 - 0.0 - - 10 - - - -
25/03:00pm 21.0 ESE 10 12 1015.9 - 0.0 - - 10 - - - -
25/02:30pm 21.1 ESE 10 13 1015.7 - 0.0 - - 10 - - - -
25/02:00pm 21.3 ESE 11 14 1015.4 - 0.0 - - 10 - - - -
25/01:30pm 21.7 ESE 11 13 1015.3 - 0.0 - - 10 - - - -
25/01:00pm 21.5 ESE 10 13 1015.2 - 0.0 - - 10 - - - -
25/12:30pm 21.0 ENE 11 14 1015.1 - 0.0 - - 10 - - - -
25/12:00pm 21.0 ENE 9 11 1015.0 - 0.0 - - 10 - - - -
25/11:30am 20.8 ENE 9 11 1014.7 - 0.0 - - 10 - - - -
25/11:00am 20.3 ENE 8 9 1014.5 - 0.0 - - 10 - - - -
25/10:30am 20.0 ESE 6 8 1014.4 - 0.0 - - 10 - - - -
25/10:00am 19.7 ESE 7 9 1014.4 - 0.0 - Partly cloudy 10 - - - -
25/09:30am 19.7 E 5 8 1013.9 - 0.0 - - 10 - - - -
25/09:00am 18.6 S 4 6 1013.8 - 6.0 - Mostly clear 9 - - - -
25/08:30am 17.7 S 7 8 1013.3 - 6.0 - Partly cloudy 10 - - - -
25/08:00am 17.4 S 7 9 1012.5 - 6.0 - Partly cloudy 7 - - - -
25/07:30am 17.0 S 9 14 1012.3 - 6.0 - Partly cloudy 7 - - - -
25/07:00am 17.1 SSE 8 13 1011.5 - 6.0 - Partly cloudy 10 - - - -
25/06:30am 17.3 S 6 11 1010.8 - 6.0 - Partly cloudy 7 - - - -
25/06:00am 17.1 SSE 9 13 1010.1 - 6.0 - Cloudy 10 - - - -
25/05:30am 17.0 SSE 13 21 1009.4 - 6.0 - Cloudy 9 - - - -
25/05:00am 17.4 SSE 15 21 1008.7 - 6.0 - Cloudy 10 - - - -
25/04:30am 18.2 SSE 14 20 1008.2 - 6.0 - Cloudy 10 - - - -
25/04:06am 18.1 S 16 22 1007.7 - 6.0 - Cloudy 10 - - - -
25/04:00am 18.2 SSE 16 22 1007.6 - 6.0 - Partly cloudy 10 - - - -
25/03:56am 18.2 SSE 16 23 1007.5 - 6.0 - Partly cloudy 10 - - - -
25/03:42am 18.9 SSE 15 19 1007.0 - 6.0 - Partly cloudy 6 - - - -
25/03:30am 18.7 SSW 4 5 1006.1 - 6.0 - Partly cloudy 6 - - - -
25/03:22am 18.9 S 2 5 1005.9 - 6.0 - - 7 - - - -
25/03:12am 19.0 S 3 5 1005.8 - 6.0 - - 5 - - - -
25/03:00am 19.1 SSW 4 7 1005.9 - 6.0 - Cloudy 6 - - - -
25/02:55am 19.0 SSW 5 7 1006.0 - 6.0 - - 7 - - - -
25/02:31am 18.8 CALM 0 0 1005.5 - 6.0 - - 5 - - - -
25/02:30am 18.7 CALM 0 0 1005.5 - 6.0 - - 6 - - - -
25/02:01am 19.1 N 4 6 1005.7 - 6.0 - - 8 - - - -
25/02:00am 19.1 N 4 6 1005.7 - 6.0 - - 8 - - - -
25/01:30am 19.3 W 2 5 1005.5 - 6.0 - - 5 - - - -
25/01:08am 19.5 NNW 3 4 1006.6 - 6.0 - - 5 - - - -
25/01:00am 19.7 NNW 6 9 1006.6 - 6.0 - - 7 - - - -
25/12:58am 19.7 N 7 12 1006.6 - 5.8 - Partly cloudy 7 - - - -
25/12:42am 19.8 ENE 11 14 1004.6 - 5.8 - Partly cloudy 8 - - - -
25/12:30am 19.8 N 11 14 1006.6 - 5.8 - Partly cloudy 7 - - - -
25/12:00am 19.4 N 5 8 1008.0 - 5.8 Rain Cloudy 10 - - - -
 
Date/Time
EDT
Temp

°C
Wind Pressure Rain
since 9am
mm
Weather Cloud Vis
km
Sea
Height
m
Swell
Dir
 
Speed
knots
Gust
knots
hPa Trend Height
m
Period
s
Dir
24/11:55pm 19.5 N 3 5 1008.4 - 5.6 - Partly cloudy 10 - - - -
24/11:32pm 20.1 SW 3 6 1009.4 - 1.8 - Partly cloudy 5 - - - -
24/11:30pm 20.2 SSW 2 6 1009.5 - 1.4 - Partly cloudy 8 - - - -
24/11:00pm 20.1 SW 8 13 1009.0 - 1.2 - - 7 - - - -
24/10:30pm 20.0 SW 4 5 1007.6 - 1.2 - - 6 - - - -
24/10:13pm 20.3 N 5 8 1007.8 - 1.2 - - 7 - - - -
24/10:00pm 20.1 N 6 9 1007.6 - 1.2 - - 5 - - - -
24/09:30pm 19.7 NNE 3 4 1008.1 - 1.2 - - 4 - - - -
24/09:00pm 20.1 CALM 0 3 1008.0 - 1.0 - Partly cloudy 5 - - - -
24/08:47pm 20.3 ENE 5 6 1008.0 - 1.0 - - 5 - - - -
24/08:39pm 20.3 N 3 5 1008.0 - 1.0 - - 8 - - - -
24/08:30pm 20.2 WNW 3 5 1008.1 - 1.0 - - 6 - - - -
24/08:28pm 20.2 W 3 5 1008.2 - 1.0 - - 5 - - - -
24/08:00pm 20.5 NNW 3 6 1007.5 - 1.0 - - 7 - - - -
24/07:48pm 20.5 NW 3 5 1007.3 - 1.0 - - 7 - - - -
24/07:35pm 20.7 WSW 1 3 1007.5 - 1.0 - Partly cloudy 5 - - - -
24/07:30pm 20.7 WSW 1 3 1007.4 - 1.0 - Partly cloudy 6 - - - -
24/07:00pm 20.8 WSW 3 7 1007.3 - 1.0 - Partly cloudy 6 - - - -
24/06:41pm 20.9 NW 2 4 1007.1 - 1.0 - Partly cloudy 7 - - - -
24/06:30pm 20.7 N 6 9 1007.1 - 1.0 - Partly cloudy 5 - - - -
24/06:23pm 20.7 NE 8 10 1006.8 - 1.0 - Partly cloudy 7 - - - -
24/06:00pm 20.8 NE 5 6 1006.9 - 1.0 - Mostly cloudy 5 - - - -
24/05:34pm 21.6 NE 3 5 1007.3 - 1.0 - Partly cloudy 5 - - - -
24/05:30pm 21.7 N 1 4 1007.4 - 1.0 - Partly cloudy 7 - - - -
24/05:00pm 21.8 CALM 0 0 1008.1 - 1.0 - Partly cloudy 10 - - - -
24/04:30pm 21.7 SSW 2 4 1008.4 - 0.8 - Partly cloudy 10 - - - -
24/04:00pm 21.9 SSW 6 7 1008.7 - 0.6 - Partly cloudy 10 - - - -
24/03:30pm 22.2 SSW 4 5 1009.1 - 0.4 - Partly cloudy 10 - - - -
24/03:00pm 22.4 S 5 6 1009.2 - 0.2 - Mostly cloudy 10 - - - -
24/02:47pm 22.7 SSW 6 8 1009.5 - 0.2 - Partly cloudy 10 - - - -
24/02:30pm 23.0 SSW 6 8 1009.3 - 0.2 - Partly cloudy 5 - - - -
24/02:29pm 23.1 SSW 6 8 1009.2 - 0.2 - Partly cloudy 5 - - - -
24/02:00pm 23.1 S 4 7 1009.5 - 0.2 - Partly cloudy 9 - - - -
24/01:54pm 23.4 SSE 3 7 1009.5 - 0.2 - Partly cloudy 8 - - - -
24/01:35pm 22.2 NE 7 9 1009.2 - 0.2 - Partly cloudy 5 - - - -
24/01:30pm 22.1 NE 8 10 1009.0 - 0.2 - Partly cloudy 7 - - - -
24/01:05pm 22.1 NE 9 12 1009.7 - 0.2 - Partly cloudy 9 - - - -
24/01:00pm 21.8 NE 10 13 1009.7 - 0.2 - Partly cloudy 9 - - - -
24/12:47pm 21.8 NE 10 12 1009.8 - 0.2 - Partly cloudy 5 - - - -
24/12:30pm 21.9 NE 11 15 1010.1 - 0.2 - Partly cloudy 9 - - - -
24/12:00pm 22.7 NE 9 13 1010.8 - 0.2 - Partly cloudy 8 - - - -
24/11:30am 22.3 NNE 11 15 1011.1 - 0.2 - Partly cloudy 8 - - - -
24/11:00am 21.3 NNE 14 19 1011.6 - 0.2 - Partly cloudy 10 - - - -
24/10:30am 20.8 NE 12 16 1011.5 - 0.2 - - 10 - - - -
24/10:00am 20.0 NE 12 17 1012.1 - 0.2 - Partly cloudy 10 - - - -
24/09:30am 19.6 NE 9 12 1011.9 - 0.0 - Partly cloudy 10 - - - -
24/09:00am 19.2 NNE 10 12 1011.5 - 0.0 - Cloudy 7 - - - -
24/08:30am 18.8 NW 1 4 1011.2 - 0.0 - Partly cloudy 9 - - - -
24/08:17am 18.8 CALM 0 0 1011.1 - 0.0 - Partly cloudy 10 - - - -
24/08:01am 18.6 CALM 0 0 1011.2 - 0.0 - - 5 - - - -
24/08:00am 18.5 CALM 0 0 1011.2 - 0.0 - - 7 - - - -
24/07:30am 18.2 W 4 5 1011.3 - 0.0 - Partly cloudy 10 - - - -
24/07:00am 18.2 CALM 0 0 1011.9 - 0.0 - - 7 - - - -
24/06:30am 18.0 CALM 0 0 1012.5 - 0.0 - - 8 - - - -
24/06:16am 17.8 S 1 5 1012.7 - 0.0 - - 9 - - - -
24/06:00am 18.0 S 5 6 1013.0 - 0.0 - Cloudy 5 - - - -
24/05:43am 17.9 SW 3 5 1013.7 - 0.0 - Cloudy 5 - - - -
24/05:30am 18.0 SW 5 7 1014.1 - 0.0 - - 7 - - - -
24/05:00am 18.2 S 1 5 1012.9 - 0.0 - Partly cloudy 10 - - - -
24/04:30am 18.2 S 4 5 1013.4 - 0.0 - Partly cloudy 10 - - - -
24/04:11am 18.1 CALM 0 0 1013.9 - 0.0 - Partly cloudy 8 - - - -
24/04:00am 18.1 W 2 5 1014.6 - 0.0 - Partly cloudy 6 - - - -
24/03:57am 18.1 W 3 6 1014.8 - 0.0 - Partly cloudy 5 - - - -
24/03:30am 17.8 W 4 6 1014.1 - 0.0 - - 7 - - - -
24/03:00am 17.8 WNW 3 5 1013.8 - 0.0 - Cloudy 8 - - - -
24/02:53am 17.9 WNW 4 5 1013.8 - 0.0 - Partly cloudy 6 - - - -
24/02:43am 18.0 NW 1 3 1013.8 - 0.0 - - 5 - - - -
24/02:30am 18.1 NNW 4 5 1014.5 - 0.0 - - 9 - - - -
24/02:00am 18.2 CALM 0 1 1014.2 - 0.0 - Partly cloudy 6 - - - -
24/01:30am 18.5 WSW 4 5 1015.4 - 0.0 - - 8 - - - -
24/01:00am 18.6 S 3 5 1014.6 - 0.0 - - 7 - - - -
24/12:30am 18.6 WNW 1 4 1015.6 - 0.0 - Partly cloudy 8 - - - -
24/12:00am 18.4 CALM 0 0 1014.7 - 0.0 - Mostly cloudy 7 - - - -
 
Date/Time
EDT
Temp

°C
Wind Pressure Rain
since 9am
mm
Weather Cloud Vis
km
Sea
Height
m
Swell
Dir
 
Speed
knots
Gust
knots
hPa Trend Height
m
Period
s
Dir
23/11:30pm 18.8 SSW 3 6 1014.1 - 0.0 - - 7 - - - -
23/11:24pm 18.8 S 4 6 1014.3 - 0.0 - - 8 - - - -
23/11:08pm 18.7 SSW 4 5 1014.1 - 0.0 - - 5 - - - -
23/11:00pm 18.8 S 5 7 1014.1 - 0.0 - - 7 - - - -
23/10:45pm 18.6 S 4 6 1013.9 - 0.0 - - 8 - - - -
23/10:30pm 18.8 S 5 7 1013.7 - 0.0 - - 5 - - - -
23/10:26pm 18.6 S 4 7 1013.9 - 0.0 - - 5 - - - -
23/10:00pm 18.4 S 3 5 1013.8 - 0.0 - - 7 - - - -
23/09:30pm 18.7 SSW 5 6 1013.4 - 0.0 - - 8 - - - -
23/09:00pm 18.9 SSW 2 5 1013.5 - 0.0 - - 7 - - - -
23/08:30pm 19.0 S 3 5 1014.0 - 0.0 - - 6 - - - -
23/08:21pm 19.4 SSE 2 4 1014.0 - 0.0 - - 7 - - - -
23/08:11pm 19.9 CALM 0 3 1014.0 - 0.0 - - 5 - - - -
23/08:00pm 20.2 ESE 3 4 1013.8 - 0.0 - - 6 - - - -
23/07:58pm 20.3 SE 3 4 1013.7 - 0.0 - - 7 - - - -
23/07:44pm 20.6 SSE 5 6 1013.0 - 0.0 - - 5 - - - -
23/07:30pm 21.0 SSE 5 6 1012.9 - 0.0 - - 7 - - - -
23/07:00pm 21.9 SSE 6 7 1012.8 - 0.0 - - 9 - - - -
23/06:30pm 22.4 SSE 9 11 1012.1 - 0.0 - - 9 - - - -
23/06:13pm 21.9 SE 8 11 1012.2 - 0.0 - - 10 - - - -
23/06:00pm 22.6 SSE 7 9 1012.0 - 0.0 - - 5 - - - -
23/05:59pm 22.5 SSE 7 9 1012.0 - 0.0 - - 5 - - - -
23/05:30pm 23.0 SSE 10 12 1011.5 - 0.0 - - 10 - - - -
23/05:00pm 22.8 SSE 9 12 1011.7 - 0.0 - Partly cloudy 10 - - - -
23/04:30pm 22.2 SSE 11 14 1011.8 - 0.0 - Partly cloudy 9 - - - -
23/04:01pm 22.6 S 11 16 1012.0 - 0.0 - Partly cloudy 10 - - - -
23/04:00pm 22.6 S 11 16 1012.0 - 0.0 - Partly cloudy 10 - - - -
23/03:30pm 22.1 SSE 12 16 1011.9 - 0.0 - Partly cloudy 10 - - - -
23/03:00pm 22.2 S 13 17 1011.9 - 0.0 - Mostly cloudy 8 - - - -
23/02:30pm 23.2 S 13 17 1011.5 - 0.0 - Partly cloudy 10 - - - -
23/02:28pm 23.2 S 13 18 1011.5 - 0.0 - Partly cloudy 10 - - - -
23/02:21pm 22.9 SSE 12 18 1011.5 - 0.0 - Partly cloudy 8 - - - -
23/02:00pm 23.1 SSE 13 18 1011.5 - 0.0 - Partly cloudy 8 - - - -
23/01:30pm 23.7 SSE 13 18 1011.3 - 0.0 - Partly cloudy 8 - - - -
23/01:15pm 23.5 SSE 14 18 1011.0 - 0.0 - Partly cloudy 10 - - - -
23/01:00pm 24.4 ESE 8 12 1010.7 - 0.0 - - 10 - - - -
23/12:30pm 23.6 E 6 9 1010.8 - 0.0 - - 10 - - - -
23/12:00pm 23.7 E 6 9 1010.9 - 0.0 - - 10 - - - -
23/11:30am 23.6 E 7 9 1011.0 - 0.0 - - 10 - - - -
23/11:00am 23.4 E 7 8 1011.0 - 0.0 - - 10 - - - -
23/10:30am 23.4 E 7 8 1010.9 - 0.0 - - 10 - - - -

Other Formats:

Comma delimited format used in spreadsheet applications
http://www.bom.gov.au/fwo/IDN60701/IDN60701.95937.axf

JavaScript Object Notation format (JSON) in row-major order
http://www.bom.gov.au/fwo/IDN60701/IDN60701.95937.json